Time;durP1;ratioP1;P1;durP2;ratioP2;P2;SDS_P1;SDS_P2;PMS_P1;PMS_P2;Temp;Humidity;BMP_temperature;BMP_pressure;BME280_temperature;BME280_humidity;BME280_pressure;Samples;Min_cycle;Max_cycle;Signal;HPM_P1;HPM_P2
2024/03/28 00:00:58;;;;;;;6.88;2.90;;;;;;;;;;5037081;28;20029;-52
2024/03/28 00:03:24;;;;;;;5.47;3.05;;;;;;;;;;5019437;28;20056;-53
2024/03/28 00:05:53;;;;;;;8.32;3.45;;;;;;;;;;5036986;28;20029;-55
2024/03/28 00:08:18;;;;;;;5.72;3.67;;;;;;;;;;5037288;28;20025;-54
2024/03/28 00:10:50;;;;;;;5.50;3.30;;;;;;;;;;5037107;28;20021;-53
2024/03/28 00:13:16;;;;;;;6.57;3.50;;;;;;;;;;5036975;28;20025;-53
2024/03/28 00:15:41;;;;;;;5.78;3.35;;;;;;;;;;5036792;28;20021;-54
2024/03/28 00:18:07;;;;;;;7.35;3.40;;;;;;;;;;5036682;28;20438;-55
2024/03/28 00:20:32;;;;;;;5.18;3.15;;;;;;;;;;5037123;28;20022;-56
2024/03/28 00:22:57;;;;;;;8.35;3.30;;;;;;;;;;5036844;28;20028;-54
2024/03/28 00:25:22;;;;;;;5.97;3.35;;;;;;;;;;5036775;28;20127;-51
2024/03/28 00:27:48;;;;;;;4.95;3.15;;;;;;;;;;5036726;28;20029;-56
2024/03/28 00:30:13;;;;;;;6.07;3.40;;;;;;;;;;5036725;28;20040;-52
2024/03/28 00:32:38;;;;;;;5.00;3.10;;;;;;;;;;5037387;28;20017;-51
2024/03/28 00:35:04;;;;;;;5.45;3.10;;;;;;;;;;5036622;28;20063;-54
2024/03/28 00:37:29;;;;;;;6.13;3.40;;;;;;;;;;5036599;28;20103;-51
2024/03/28 00:39:54;;;;;;;6.15;3.25;;;;;;;;;;5036574;28;20072;-54
2024/03/28 00:42:19;;;;;;;6.35;3.30;;;;;;;;;;5037071;28;20025;-55
2024/03/28 00:44:44;;;;;;;8.05;3.00;;;;;;;;;;5036866;28;20095;-51
2024/03/28 00:47:10;;;;;;;6.40;3.28;;;;;;;;;;5036144;28;20021;-53
2024/03/28 00:49:35;;;;;;;6.43;3.45;;;;;;;;;;5036610;28;20025;-53
2024/03/28 00:52:00;;;;;;;6.13;3.13;;;;;;;;;;5036367;28;20017;-51
2024/03/28 00:54:25;;;;;;;5.28;3.05;;;;;;;;;;5036190;28;20021;-52
2024/03/28 00:56:51;;;;;;;6.43;2.80;;;;;;;;;;5036132;28;20104;-53
2024/03/28 00:59:16;;;;;;;5.25;2.97;;;;;;;;;;5036053;28;20113;-51
2024/03/28 01:01:41;;;;;;;6.28;2.83;;;;;;;;;;5035997;28;20127;-53
2024/03/28 01:04:06;;;;;;;5.70;2.35;;;;;;;;;;5034970;28;20056;-52
2024/03/28 01:06:31;;;;;;;8.55;2.53;;;;;;;;;;5036197;28;20009;-51
2024/03/28 01:08:57;;;;;;;5.18;2.67;;;;;;;;;;5035961;28;20028;-53
2024/03/28 01:11:22;;;;;;;7.10;3.10;;;;;;;;;;5035870;28;20342;-54
2024/03/28 01:13:47;;;;;;;6.35;2.80;;;;;;;;;;5035831;28;20346;-52
2024/03/28 01:16:12;;;;;;;7.72;2.50;;;;;;;;;;5036049;28;20086;-50
2024/03/28 01:18:37;;;;;;;5.50;2.83;;;;;;;;;;5035720;28;20441;-51
2024/03/28 01:21:03;;;;;;;4.45;2.47;;;;;;;;;;5035982;28;20361;-51
2024/03/28 01:23:30;;;;;;;4.82;2.30;;;;;;;;;;5035284;28;20026;-51
2024/03/28 01:25:56;;;;;;;4.60;2.20;;;;;;;;;;5035576;28;20040;-50
2024/03/28 01:28:21;;;;;;;7.35;2.50;;;;;;;;;;5035468;28;20431;-53
2024/03/28 01:30:46;;;;;;;6.30;2.42;;;;;;;;;;5035501;28;20457;-50
2024/03/28 01:33:11;;;;;;;5.30;2.00;;;;;;;;;;5035496;28;20049;-51
2024/03/28 01:35:36;;;;;;;4.82;2.25;;;;;;;;;;5035473;28;20112;-52
2024/03/28 01:38:02;;;;;;;5.95;1.80;;;;;;;;;;5035326;28;20109;-54
2024/03/28 01:40:27;;;;;;;4.72;1.95;;;;;;;;;;5017766;28;20053;-53
2024/03/28 01:43:01;;;;;;;3.03;1.77;;;;;;;;;;5017981;28;20025;-54
2024/03/28 01:45:26;;;;;;;3.95;2.00;;;;;;;;;;5035228;28;20021;-55
2024/03/28 01:47:52;;;;;;;7.35;2.20;;;;;;;;;;5035094;28;20025;-56
2024/03/28 01:50:17;;;;;;;3.80;1.95;;;;;;;;;;5035138;28;20451;-55
2024/03/28 01:52:42;;;;;;;6.28;1.85;;;;;;;;;;5035220;28;20049;-54
2024/03/28 01:55:07;;;;;;;5.85;2.00;;;;;;;;;;5035053;28;20018;-55
2024/03/28 01:57:33;;;;;;;4.10;2.00;;;;;;;;;;5035374;28;20025;-53
2024/03/28 01:59:58;;;;;;;3.70;1.90;;;;;;;;;;5017598;28;20041;-55
2024/03/28 02:02:24;;;;;;;3.60;2.00;;;;;;;;;;5034976;28;20048;-52
2024/03/28 02:04:50;;;;;;;5.07;2.38;;;;;;;;;;5017480;28;20037;-56
2024/03/28 02:07:15;;;;;;;4.75;2.30;;;;;;;;;;5035149;28;20362;-55
2024/03/28 02:09:40;;;;;;;3.90;2.08;;;;;;;;;;5035389;28;20116;-55
2024/03/28 02:12:06;;;;;;;5.53;2.35;;;;;;;;;;5034701;28;20025;-52
2024/03/28 02:14:31;;;;;;;5.13;2.10;;;;;;;;;;5017187;28;20033;-53
2024/03/28 02:17:03;;;;;;;4.28;2.00;;;;;;;;;;5034777;28;20108;-52
2024/03/28 02:19:28;;;;;;;3.95;2.20;;;;;;;;;;5034709;28;20037;-54
2024/03/28 02:21:53;;;;;;;3.85;2.05;;;;;;;;;;5034953;28;20083;-51
2024/03/28 02:24:18;;;;;;;3.83;1.90;;;;;;;;;;5034204;28;20143;-52
2024/03/28 02:26:44;;;;;;;4.25;2.30;;;;;;;;;;5034897;28;20013;-54
2024/03/28 02:29:09;;;;;;;5.82;2.22;;;;;;;;;;5034385;28;20071;-51
2024/03/28 02:31:34;;;;;;;5.75;2.08;;;;;;;;;;5034841;28;20087;-53
2024/03/28 02:33:59;;;;;;;5.40;2.60;;;;;;;;;;5016439;28;20029;-52
2024/03/28 02:36:24;;;;;;;5.85;2.47;;;;;;;;;;5034569;28;20446;-54
2024/03/28 02:38:50;;;;;;;4.57;2.35;;;;;;;;;;5034501;28;20435;-52
2024/03/28 02:41:18;;;;;;;4.93;2.05;;;;;;;;;;5034460;28;20434;-52
2024/03/28 02:43:43;;;;;;;4.25;2.50;;;;;;;;;;5034101;28;20029;-52
2024/03/28 02:46:09;;;;;;;4.25;2.00;;;;;;;;;;5034448;28;20025;-54
2024/03/28 02:48:34;;;;;;;4.72;2.25;;;;;;;;;;5034464;28;20022;-53
2024/03/28 02:50:59;;;;;;;4.53;2.47;;;;;;;;;;5034371;28;20033;-54
2024/03/28 02:53:24;;;;;;;5.88;2.50;;;;;;;;;;5034330;28;20104;-52
2024/03/28 02:55:50;;;;;;;5.85;2.40;;;;;;;;;;5016728;28;20053;-53
2024/03/28 02:58:16;;;;;;;4.05;2.28;;;;;;;;;;5034256;28;20124;-52
2024/03/28 03:00:42;;;;;;;4.72;2.35;;;;;;;;;;5049058;22;20328;-88
2024/03/28 03:03:08;;;;;;;5.53;2.40;;;;;;;;;;5017693;28;20039;-88
2024/03/28 03:05:34;;;;;;;4.28;2.33;;;;;;;;;;5017485;28;20092;-88
2024/03/28 03:08:01;;;;;;;5.93;2.50;;;;;;;;;;5017982;28;20048;-88
2024/03/28 03:10:28;;;;;;;3.80;2.22;;;;;;;;;;5035678;28;20079;-88
2024/03/28 03:12:54;;;;;;;3.60;2.05;;;;;;;;;;5035605;28;20022;-88
2024/03/28 03:15:21;;;;;;;6.55;2.65;;;;;;;;;;5017646;28;20096;-89
2024/03/28 03:17:47;;;;;;;4.00;2.40;;;;;;;;;;5035134;28;20032;-89
2024/03/28 03:20:14;;;;;;;5.00;2.45;;;;;;;;;;5034813;28;20033;-89
2024/03/28 03:22:48;;;;;;;4.50;2.63;;;;;;;;;;5035183;28;20025;-89
2024/03/28 03:25:24;;;;;;;7.05;3.17;;;;;;;;;;5017592;28;20060;-88
2024/03/28 03:36:12;;;;;;;6.75;2.92;;;;;;;;;;5041808;28;20036;-88
2024/03/28 03:38:38;;;;;;;9.98;2.78;;;;;;;;;;5045144;28;20024;-88
2024/03/28 03:41:04;;;;;;;5.65;2.40;;;;;;;;;;5039751;28;20108;-88
2024/03/28 03:43:31;;;;;;;5.88;2.80;;;;;;;;;;5020593;28;20021;-88
2024/03/28 03:45:57;;;;;;;4.95;2.65;;;;;;;;;;5020873;28;20461;-88
2024/03/28 03:48:24;;;;;;;5.93;3.33;;;;;;;;;;5022823;28;20104;-88
2024/03/28 03:50:54;;;;;;;4.57;2.80;;;;;;;;;;5020885;28;20140;-88
2024/03/28 03:53:20;;;;;;;5.93;2.80;;;;;;;;;;5038044;28;20343;-89
2024/03/28 03:55:54;;;;;;;4.97;3.17;;;;;;;;;;5020623;28;20033;-88
2024/03/28 03:58:21;;;;;;;4.25;2.80;;;;;;;;;;5038469;28;20457;-88
2024/03/28 04:00:47;;;;;;;6.35;3.00;;;;;;;;;;5039067;22;20048;-51
2024/03/28 04:03:13;;;;;;;4.53;2.75;;;;;;;;;;5057236;28;20032;-50
2024/03/28 04:05:40;;;;;;;5.82;2.63;;;;;;;;;;5057140;28;20016;-52
2024/03/28 04:08:06;;;;;;;6.13;3.33;;;;;;;;;;5058073;28;20048;-51
2024/03/28 04:10:33;;;;;;;4.93;2.95;;;;;;;;;;5057099;28;20456;-51
2024/03/28 04:13:00;;;;;;;7.65;2.72;;;;;;;;;;5057391;28;20090;-51
2024/03/28 04:15:26;;;;;;;7.15;3.25;;;;;;;;;;5056950;28;20455;-52
2024/03/28 04:17:53;;;;;;;5.50;3.05;;;;;;;;;;5056932;28;20094;-50
2024/03/28 04:20:19;;;;;;;6.20;3.10;;;;;;;;;;5039569;28;20039;-51
2024/03/28 04:22:46;;;;;;;4.47;2.80;;;;;;;;;;5056839;28;20025;-51
2024/03/28 04:25:12;;;;;;;4.95;3.03;;;;;;;;;;5056912;28;20102;-51
2024/03/28 04:27:38;;;;;;;5.20;2.72;;;;;;;;;;5039149;28;20036;-51
2024/03/28 04:30:07;;;;;;;5.60;2.97;;;;;;;;;;5056953;28;20078;-50
2024/03/28 04:32:33;;;;;;;5.10;3.05;;;;;;;;;;5057010;28;20021;-51
2024/03/28 04:35:00;;;;;;;5.60;2.90;;;;;;;;;;5057265;28;20020;-51
2024/03/28 04:37:26;;;;;;;5.05;2.97;;;;;;;;;;5057196;28;20080;-51
2024/03/28 04:39:53;;;;;;;5.07;2.97;;;;;;;;;;5057187;28;20021;-52
2024/03/28 04:42:19;;;;;;;6.80;3.22;;;;;;;;;;5057134;28;20250;-52
2024/03/28 04:44:46;;;;;;;5.60;3.33;;;;;;;;;;5056744;28;20029;-50
2024/03/28 04:47:14;;;;;;;7.80;3.40;;;;;;;;;;5056963;28;20108;-50
2024/03/28 04:49:42;;;;;;;5.40;3.72;;;;;;;;;;5056899;28;20027;-51
2024/03/28 04:52:09;;;;;;;5.15;3.05;;;;;;;;;;5056890;28;20062;-53
2024/03/28 04:54:36;;;;;;;6.38;3.10;;;;;;;;;;5056849;28;20032;-51
2024/03/28 04:57:02;;;;;;;6.78;3.83;;;;;;;;;;5056582;28;20033;-51
2024/03/28 04:59:29;;;;;;;5.50;3.17;;;;;;;;;;5056690;28;20082;-51
2024/03/28 05:01:55;;;;;;;6.18;3.83;;;;;;;;;;5056354;28;20338;-52
2024/03/28 05:04:22;;;;;;;5.95;3.80;;;;;;;;;;5056566;28;20021;-54
2024/03/28 05:06:48;;;;;;;6.35;3.95;;;;;;;;;;5056354;28;20112;-52
2024/03/28 05:09:15;;;;;;;5.05;3.50;;;;;;;;;;5056340;28;20020;-51
2024/03/28 05:11:41;;;;;;;6.70;3.55;;;;;;;;;;5056850;28;20024;-51
2024/03/28 05:14:09;;;;;;;6.78;3.65;;;;;;;;;;5056216;28;20108;-51
2024/03/28 05:16:36;;;;;;;7.00;3.83;;;;;;;;;;5056163;28;20029;-50
2024/03/28 05:19:04;;;;;;;5.70;3.65;;;;;;;;;;5056431;28;20029;-53
2024/03/28 05:21:30;;;;;;;8.40;3.80;;;;;;;;;;5056243;28;20055;-51
2024/03/28 05:23:56;;;;;;;7.05;3.40;;;;;;;;;;5056254;28;20020;-50
2024/03/28 05:26:23;;;;;;;5.20;3.17;;;;;;;;;;5056675;28;20013;-51
2024/03/28 05:28:49;;;;;;;5.90;3.47;;;;;;;;;;5038416;28;20107;-50
2024/03/28 05:31:19;;;;;;;7.53;3.95;;;;;;;;;;5055874;28;20019;-50
2024/03/28 05:33:45;;;;;;;4.45;3.45;;;;;;;;;;5056217;28;20035;-52
2024/03/28 05:36:11;;;;;;;5.45;3.90;;;;;;;;;;5055798;28;20021;-51
2024/03/28 05:38:37;;;;;;;6.38;3.60;;;;;;;;;;5056286;28;20315;-54
2024/03/28 05:41:04;;;;;;;6.05;3.95;;;;;;;;;;5055688;28;20044;-52
2024/03/28 05:43:30;;;;;;;5.15;3.40;;;;;;;;;;5055609;28;20017;-52
2024/03/28 05:45:57;;;;;;;8.70;3.70;;;;;;;;;;5055612;28;20013;-50
2024/03/28 05:48:23;;;;;;;5.18;3.30;;;;;;;;;;5055550;28;20112;-52
2024/03/28 05:50:49;;;;;;;5.22;3.65;;;;;;;;;;5055185;28;20025;-51
2024/03/28 05:53:14;;;;;;;5.70;3.60;;;;;;;;;;5037932;28;20025;-51
2024/03/28 05:55:44;;;;;;;6.32;3.40;;;;;;;;;;5055853;28;20047;-52
2024/03/28 05:58:10;;;;;;;5.53;3.28;;;;;;;;;;5055365;28;20021;-50
2024/03/28 06:00:37;;;;;;;5.30;3.75;;;;;;;;;;5055889;28;20345;-51
2024/03/28 06:03:02;;;;;;;7.55;3.40;;;;;;;;;;5055213;28;20365;-51
2024/03/28 06:05:28;;;;;;;5.55;3.30;;;;;;;;;;5055240;28;20021;-50
2024/03/28 06:07:55;;;;;;;6.60;3.10;;;;;;;;;;5055231;28;20025;-51
2024/03/28 06:10:21;;;;;;;5.53;3.95;;;;;;;;;;5055575;28;20085;-51
2024/03/28 06:12:47;;;;;;;7.40;3.83;;;;;;;;;;5055183;28;20349;-51
2024/03/28 06:15:14;;;;;;;6.10;3.47;;;;;;;;;;5055457;28;20456;-55
2024/03/28 06:17:40;;;;;;;6.40;3.60;;;;;;;;;;5055350;28;20118;-54
2024/03/28 06:20:08;;;;;;;5.55;3.67;;;;;;;;;;5037483;28;20083;-51
2024/03/28 06:22:33;;;;;;;5.93;3.33;;;;;;;;;;5054976;28;20036;-51
2024/03/28 06:24:59;;;;;;;6.68;3.08;;;;;;;;;;5055089;28;20055;-52
2024/03/28 06:27:26;;;;;;;5.25;2.85;;;;;;;;;;5055207;28;20020;-50
2024/03/28 06:29:52;;;;;;;5.43;3.00;;;;;;;;;;5037392;28;20457;-50
2024/03/28 06:32:25;;;;;;;5.10;2.83;;;;;;;;;;5054891;28;20075;-50
2024/03/28 06:34:52;;;;;;;5.13;2.88;;;;;;;;;;5055121;28;20075;-51
2024/03/28 06:37:18;;;;;;;4.97;2.80;;;;;;;;;;5054864;28;20071;-50
2024/03/28 06:39:45;;;;;;;6.60;3.05;;;;;;;;;;5054771;28;20438;-51
2024/03/28 06:42:12;;;;;;;4.88;2.70;;;;;;;;;;5055034;28;20025;-51
2024/03/28 06:44:39;;;;;;;5.43;2.90;;;;;;;;;;5055188;28;20056;-51
2024/03/28 06:47:05;;;;;;;6.38;3.22;;;;;;;;;;5054718;28;20035;-51
2024/03/28 06:49:32;;;;;;;6.22;2.67;;;;;;;;;;5054968;28;20017;-51
2024/03/28 06:51:58;;;;;;;8.48;2.90;;;;;;;;;;5054937;28;20017;-50
2024/03/28 06:54:25;;;;;;;6.53;2.47;;;;;;;;;;5055223;28;20053;-51
2024/03/28 06:56:51;;;;;;;5.20;2.92;;;;;;;;;;5054656;28;20028;-50
2024/03/28 06:59:18;;;;;;;4.13;2.13;;;;;;;;;;5054671;28;20112;-50
2024/03/28 07:01:45;;;;;;;5.53;2.35;;;;;;;;;;5056017;28;20055;-51
2024/03/28 07:04:11;;;;;;;3.88;2.00;;;;;;;;;;5058552;28;20029;-51
2024/03/28 07:06:38;;;;;;;5.32;1.80;;;;;;;;;;5059220;28;20028;-50
2024/03/28 07:09:04;;;;;;;4.22;1.75;;;;;;;;;;5058623;28;20025;-52
2024/03/28 07:11:30;;;;;;;4.20;1.70;;;;;;;;;;5058848;28;20021;-51
2024/03/28 07:13:57;;;;;;;4.97;1.70;;;;;;;;;;5058494;28;20021;-51
2024/03/28 07:16:24;;;;;;;3.53;1.88;;;;;;;;;;5058557;28;20354;-50
2024/03/28 07:18:51;;;;;;;2.95;1.60;;;;;;;;;;5058446;28;20094;-50
2024/03/28 07:21:18;;;;;;;4.07;1.80;;;;;;;;;;5058337;28;20024;-51
2024/03/28 07:23:45;;;;;;;3.55;1.65;;;;;;;;;;5058235;28;20452;-50
2024/03/28 07:26:12;;;;;;;3.88;1.75;;;;;;;;;;5041029;28;20033;-50
2024/03/28 07:28:38;;;;;;;3.72;1.88;;;;;;;;;;5058505;28;20017;-51
2024/03/28 07:31:04;;;;;;;6.53;1.60;;;;;;;;;;5058194;28;20024;-50
2024/03/28 07:33:30;;;;;;;4.00;1.50;;;;;;;;;;5058775;28;20428;-50
2024/03/28 07:35:56;;;;;;;3.70;1.73;;;;;;;;;;5058084;28;20029;-50
2024/03/28 07:38:23;;;;;;;3.22;1.60;;;;;;;;;;5058083;28;20021;-50
2024/03/28 07:40:50;;;;;;;3.42;1.45;;;;;;;;;;5058307;28;20418;-51
2024/03/28 07:43:17;;;;;;;4.22;1.63;;;;;;;;;;5057972;28;20059;-50
2024/03/28 07:45:44;;;;;;;4.68;2.17;;;;;;;;;;5058079;28;20418;-51
2024/03/28 07:48:10;;;;;;;5.72;1.83;;;;;;;;;;5057892;28;20016;-50
2024/03/28 07:50:37;;;;;;;7.30;1.80;;;;;;;;;;5058081;28;20028;-50
2024/03/28 07:53:04;;;;;;;4.43;1.80;;;;;;;;;;5057798;28;20033;-49
2024/03/28 07:55:30;;;;;;;9.75;2.00;;;;;;;;;;5057761;28;20503;-48
2024/03/28 07:57:56;;;;;;;4.38;1.85;;;;;;;;;;5040100;28;20025;-49
2024/03/28 08:00:22;;;;;;;5.65;1.77;;;;;;;;;;5057574;28;20071;-49
2024/03/28 08:02:51;;;;;;;7.47;2.38;;;;;;;;;;5057583;28;20566;-49
2024/03/28 08:05:20;;;;;;;6.68;2.50;;;;;;;;;;5057447;28;20104;-48
2024/03/28 08:07:45;;;;;;;5.22;2.30;;;;;;;;;;5057499;28;20021;-50
2024/03/28 08:10:12;;;;;;;4.85;2.47;;;;;;;;;;5057463;28;20110;-50
2024/03/28 08:12:39;;;;;;;11.43;2.35;;;;;;;;;;5057287;28;20426;-50
2024/03/28 08:15:06;;;;;;;4.53;2.20;;;;;;;;;;5057605;28;20032;-51
2024/03/28 08:17:33;;;;;;;6.47;2.40;;;;;;;;;;5057267;28;20025;-50
2024/03/28 08:20:13;;;;;;;4.82;2.60;;;;;;;;;;5057205;28;20072;-52
2024/03/28 08:22:38;;;;;;;7.30;2.58;;;;;;;;;;5057483;28;20361;-51
2024/03/28 08:25:05;;;;;;;5.70;2.40;;;;;;;;;;5040110;28;20024;-52
2024/03/28 08:27:32;;;;;;;7.18;2.80;;;;;;;;;;5057129;28;20021;-52
2024/03/28 08:29:59;;;;;;;6.22;2.55;;;;;;;;;;5057046;28;20414;-51
2024/03/28 08:32:26;;;;;;;7.30;2.80;;;;;;;;;;5056661;28;20049;-52
2024/03/28 08:34:53;;;;;;;9.82;2.47;;;;;;;;;;5056990;28;20078;-51
2024/03/28 08:37:20;;;;;;;5.75;2.75;;;;;;;;;;5057703;28;20020;-51
2024/03/28 08:39:46;;;;;;;6.60;2.90;;;;;;;;;;5056793;28;20074;-53
2024/03/28 08:42:11;;;;;;;7.07;2.88;;;;;;;;;;5057276;28;20353;-51
2024/03/28 08:44:38;;;;;;;12.50;3.22;;;;;;;;;;5056579;28;20028;-53
2024/03/28 08:47:04;;;;;;;7.15;2.97;;;;;;;;;;5057417;28;20314;-53
2024/03/28 08:49:31;;;;;;;7.97;3.20;;;;;;;;;;5056686;28;20064;-52
2024/03/28 08:51:57;;;;;;;7.85;2.65;;;;;;;;;;5057110;28;20017;-52
2024/03/28 08:54:25;;;;;;;6.78;3.22;;;;;;;;;;5056701;28;20441;-51
2024/03/28 08:56:51;;;;;;;9.73;3.42;;;;;;;;;;5056938;28;20032;-52
2024/03/28 08:59:19;;;;;;;7.38;2.90;;;;;;;;;;5056398;28;20082;-53
2024/03/28 09:01:45;;;;;;;5.38;2.97;;;;;;;;;;5056541;28;20033;-53
2024/03/28 09:04:17;;;;;;;5.57;2.85;;;;;;;;;;5056399;28;20078;-51
2024/03/28 09:06:44;;;;;;;9.27;2.72;;;;;;;;;;5056741;28;20051;-52
2024/03/28 09:09:11;;;;;;;6.43;2.85;;;;;;;;;;5056520;28;20018;-52
2024/03/28 09:11:37;;;;;;;7.55;2.83;;;;;;;;;;5056328;28;20416;-52
2024/03/28 09:14:04;;;;;;;7.25;3.17;;;;;;;;;;5056872;28;20098;-57
2024/03/28 09:16:32;;;;;;;5.75;3.13;;;;;;;;;;5056818;28;20029;-52
2024/03/28 09:18:59;;;;;;;5.65;2.97;;;;;;;;;;5056237;28;20021;-55
2024/03/28 09:21:25;;;;;;;10.73;4.45;;;;;;;;;;5055950;28;20412;-53
2024/03/28 09:23:52;;;;;;;6.80;2.60;;;;;;;;;;5055411;28;20040;-53
2024/03/28 09:26:19;;;;;;;5.93;2.40;;;;;;;;;;5056307;28;20457;-52
2024/03/28 09:28:48;;;;;;;5.25;2.50;;;;;;;;;;5056265;28;20095;-52
2024/03/28 09:31:15;;;;;;;5.90;2.33;;;;;;;;;;5055894;28;20017;-54
2024/03/28 09:33:42;;;;;;;4.80;2.90;;;;;;;;;;5055668;28;20017;-52
2024/03/28 09:36:08;;;;;;;6.03;2.60;;;;;;;;;;5056137;28;20100;-52
2024/03/28 09:38:34;;;;;;;5.53;2.80;;;;;;;;;;5055490;28;20099;-53
2024/03/28 09:41:05;;;;;;;5.28;2.70;;;;;;;;;;5055745;28;20032;-54
2024/03/28 09:43:33;;;;;;;5.68;2.40;;;;;;;;;;5056021;28;20025;-52
2024/03/28 09:45:59;;;;;;;4.28;2.55;;;;;;;;;;5055885;28;20456;-53
2024/03/28 09:48:26;;;;;;;5.30;2.53;;;;;;;;;;5055588;28;20021;-53
2024/03/28 09:50:54;;;;;;;5.25;2.55;;;;;;;;;;5055602;28;20052;-52
2024/03/28 09:53:22;;;;;;;4.07;2.10;;;;;;;;;;5056142;28;20021;-55
2024/03/28 09:55:48;;;;;;;3.80;2.10;;;;;;;;;;5055400;28;20339;-51
2024/03/28 09:58:15;;;;;;;5.05;2.30;;;;;;;;;;5055212;28;20028;-53
2024/03/28 10:00:43;;;;;;;4.60;1.92;;;;;;;;;;5054886;28;20434;-52
2024/03/28 10:03:16;;;;;;;3.72;1.90;;;;;;;;;;5055335;28;20037;-52
2024/03/28 10:05:42;;;;;;;3.90;1.85;;;;;;;;;;5054435;28;20029;-52
2024/03/28 10:08:09;;;;;;;4.68;1.85;;;;;;;;;;5055023;28;20315;-55
2024/03/28 10:10:37;;;;;;;5.30;1.50;;;;;;;;;;5055027;28;20041;-52
2024/03/28 10:13:07;;;;;;;5.45;1.73;;;;;;;;;;5054413;28;20100;-54
2024/03/28 10:15:35;;;;;;;4.68;1.63;;;;;;;;;;5054476;28;20369;-52
2024/03/28 10:18:05;;;;;;;2.55;1.30;;;;;;;;;;5054328;28;20032;-54
2024/03/28 10:20:32;;;;;;;5.13;1.60;;;;;;;;;;5054367;28;20031;-51
2024/03/28 10:23:00;;;;;;;3.63;1.45;;;;;;;;;;5054823;28;20025;-52
2024/03/28 10:25:27;;;;;;;4.85;1.30;;;;;;;;;;5054349;28;20442;-52
2024/03/28 10:28:03;;;;;;;4.55;1.38;;;;;;;;;;5054396;28;20016;-51
2024/03/28 10:30:29;;;;;;;5.13;1.42;;;;;;;;;;5054242;28;20469;-53
2024/03/28 10:33:06;;;;;;;3.95;1.27;;;;;;;;;;5054131;28;20021;-52
2024/03/28 10:35:34;;;;;;;3.20;1.30;;;;;;;;;;5054034;28;20028;-52
2024/03/28 10:38:07;;;;;;;4.18;1.50;;;;;;;;;;5054058;28;20114;-51
2024/03/28 10:40:33;;;;;;;3.65;1.20;;;;;;;;;;5054035;28;20533;-51
2024/03/28 10:43:08;;;;;;;5.55;1.40;;;;;;;;;;5036571;28;20430;-53
2024/03/28 10:45:41;;;;;;;3.20;1.10;;;;;;;;;;5054066;28;20310;-53
2024/03/28 10:48:13;;;;;;;4.15;1.75;;;;;;;;;;5054229;28;20098;-53
2024/03/28 10:50:57;;;;;;;6.10;2.58;;;;;;;;;;5054273;28;20430;-53
2024/03/28 10:53:47;;;;;;;6.55;2.40;;;;;;;;;;5053980;28;20036;-54
2024/03/28 10:56:17;;;;;;;3.35;1.10;;;;;;;;;;5054131;28;20049;-53
2024/03/28 10:58:46;;;;;;;3.53;1.40;;;;;;;;;;5053669;28;20074;-53
2024/03/28 11:01:12;;;;;;;2.90;1.20;;;;;;;;;;5053863;28;20399;-51
2024/03/28 11:03:39;;;;;;;3.45;1.10;;;;;;;;;;5053743;28;20100;-53
2024/03/28 11:06:07;;;;;;;3.17;1.30;;;;;;;;;;5016035;28;1115273;-52
2024/03/28 11:08:34;;;;;;;3.67;1.23;;;;;;;;;;5054545;28;20358;-53
2024/03/28 11:11:01;;;;;;;2.20;0.90;;;;;;;;;;5054536;28;20517;-52
2024/03/28 11:13:28;;;;;;;5.35;1.00;;;;;;;;;;5054547;28;20013;-54
2024/03/28 11:16:04;;;;;;;2.75;1.17;;;;;;;;;;5054499;28;20095;-55
2024/03/28 11:18:32;;;;;;;3.38;1.10;;;;;;;;;;5054444;28;20025;-54
2024/03/28 11:21:07;;;;;;;2.72;1.02;;;;;;;;;;5054383;28;20017;-52
2024/03/28 11:23:34;;;;;;;2.38;1.00;;;;;;;;;;5054455;28;20043;-51
2024/03/28 11:26:07;;;;;;;4.50;1.10;;;;;;;;;;5054277;28;20032;-53
2024/03/28 11:28:39;;;;;;;6.82;1.65;;;;;;;;;;5054321;28;20055;-52
2024/03/28 11:31:06;;;;;;;2.25;1.30;;;;;;;;;;5054366;28;20104;-54
2024/03/28 11:33:39;;;;;;;4.53;1.38;;;;;;;;;;5054941;28;20098;-52
2024/03/28 11:36:07;;;;;;;6.35;2.00;;;;;;;;;;5054530;28;20025;-54
2024/03/28 11:38:35;;;;;;;4.05;1.48;;;;;;;;;;5037203;28;20029;-54
2024/03/28 11:41:03;;;;;;;2.58;0.95;;;;;;;;;;5054556;28;20345;-52
2024/03/28 11:43:30;;;;;;;1.85;0.80;;;;;;;;;;5037122;28;20032;-52
2024/03/28 11:46:02;;;;;;;3.90;1.05;;;;;;;;;;5054139;28;20028;-51
2024/03/28 11:48:35;;;;;;;5.38;1.08;;;;;;;;;;5056967;28;20032;-54
2024/03/28 11:51:03;;;;;;;4.55;1.45;;;;;;;;;;5057809;28;20028;-52
2024/03/28 11:53:29;;;;;;;4.65;0.90;;;;;;;;;;5057798;28;20032;-52
2024/03/28 11:55:56;;;;;;;2.65;0.98;;;;;;;;;;5057774;28;20442;-52
2024/03/28 11:58:27;;;;;;;3.47;1.00;;;;;;;;;;5057761;28;20469;-52
2024/03/28 12:00:58;;;;;;;2.40;1.10;;;;;;;;;;5057626;28;20032;-51
2024/03/28 12:03:25;;;;;;;3.33;0.85;;;;;;;;;;5057377;28;20025;-51
2024/03/28 12:05:52;;;;;;;2.05;0.70;;;;;;;;;;5057439;28;20051;-51
2024/03/28 12:08:23;;;;;;;3.38;0.90;;;;;;;;;;5058136;28;20021;-54
2024/03/28 12:10:50;;;;;;;2.35;0.60;;;;;;;;;;5057593;28;20342;-51
2024/03/28 12:13:17;;;;;;;2.35;0.80;;;;;;;;;;5057473;28;20353;-51
2024/03/28 12:15:53;;;;;;;3.67;0.85;;;;;;;;;;5039924;28;20104;-52
2024/03/28 12:18:19;;;;;;;3.30;0.90;;;;;;;;;;5057360;28;20016;-51
2024/03/28 12:20:46;;;;;;;3.63;1.00;;;;;;;;;;5040038;28;20044;-51
2024/03/28 12:23:12;;;;;;;3.85;0.90;;;;;;;;;;5039833;28;20119;-54
2024/03/28 12:25:48;;;;;;;3.85;0.80;;;;;;;;;;5057170;28;20017;-53
2024/03/28 12:28:19;;;;;;;3.88;0.90;;;;;;;;;;5057480;28;20402;-52
2024/03/28 12:30:45;;;;;;;;;;;;;;;;;;5057513;28;20027;-52
2024/03/28 12:33:12;;;;;;;2.78;0.93;;;;;;;;;;5057120;28;19905;-52
2024/03/28 12:35:39;;;;;;;5.43;1.00;;;;;;;;;;5057019;28;20092;-54
2024/03/28 12:38:07;;;;;;;7.65;1.10;;;;;;;;;;5057538;28;20021;-56
2024/03/28 12:40:34;;;;;;;4.95;1.10;;;;;;;;;;5057195;28;20036;-52
2024/03/28 12:43:00;;;;;;;3.72;1.00;;;;;;;;;;5056785;28;20066;-54
2024/03/28 12:45:27;;;;;;;2.08;0.85;;;;;;;;;;5056889;28;20426;-53
2024/03/28 12:47:53;;;;;;;3.08;1.10;;;;;;;;;;5057056;28;20388;-53
2024/03/28 12:50:23;;;;;;;8.25;1.05;;;;;;;;;;5057002;28;20020;-54
2024/03/28 12:52:53;;;;;;;4.05;1.13;;;;;;;;;;5039247;28;20349;-52
2024/03/28 12:55:19;;;;;;;3.85;0.80;;;;;;;;;;5056679;28;20021;-52
2024/03/28 12:57:46;;;;;;;7.60;1.13;;;;;;;;;;5056632;28;20020;-51
2024/03/28 13:00:14;;;;;;;2.97;0.77;;;;;;;;;;5055667;28;20102;-53
2024/03/28 13:02:41;;;;;;;3.70;0.75;;;;;;;;;;5056205;28;20052;-50
2024/03/28 13:05:08;;;;;;;7.47;1.02;;;;;;;;;;5056424;28;20424;-54
2024/03/28 13:07:34;;;;;;;2.78;0.90;;;;;;;;;;5056372;28;20025;-52
2024/03/28 13:10:01;;;;;;;6.10;0.82;;;;;;;;;;5056363;28;20009;-52
2024/03/28 13:12:27;;;;;;;6.50;1.10;;;;;;;;;;5056386;28;20040;-52
2024/03/28 13:14:53;;;;;;;10.23;1.02;;;;;;;;;;5056253;28;20032;-51
2024/03/28 13:17:21;;;;;;;3.47;0.82;;;;;;;;;;5056491;28;20029;-53
2024/03/28 13:19:48;;;;;;;3.80;0.70;;;;;;;;;;5056162;28;20020;-51
2024/03/28 13:22:14;;;;;;;8.68;0.88;;;;;;;;;;5056138;28;20027;-51
2024/03/28 13:24:41;;;;;;;2.15;0.70;;;;;;;;;;5055955;28;20434;-51
2024/03/28 13:27:06;;;;;;;6.28;0.90;;;;;;;;;;5038432;28;20426;-51
2024/03/28 13:29:33;;;;;;;1.55;0.70;;;;;;;;;;5055953;28;20016;-52
2024/03/28 13:32:00;;;;;;;0.98;0.60;;;;;;;;;;5055940;28;20400;-54
2024/03/28 13:34:26;;;;;;;1.25;0.50;;;;;;;;;;5055941;28;20029;-52
2024/03/28 13:36:53;;;;;;;2.08;0.57;;;;;;;;;;5056295;28;20028;-50
2024/03/28 13:39:20;;;;;;;4.03;0.70;;;;;;;;;;5055797;28;20435;-49
2024/03/28 13:41:47;;;;;;;3.22;0.55;;;;;;;;;;5055735;28;20016;-52
2024/03/28 13:44:13;;;;;;;1.98;0.70;;;;;;;;;;5055625;28;20025;-49
2024/03/28 13:46:40;;;;;;;2.47;0.60;;;;;;;;;;5055674;28;20469;-51
2024/03/28 13:49:15;;;;;;;2.58;0.60;;;;;;;;;;5055623;28;20105;-53
2024/03/28 13:51:42;;;;;;;1.88;0.90;;;;;;;;;;5055610;28;20024;-50
2024/03/28 13:54:11;;;;;;;2.92;0.98;;;;;;;;;;5038108;28;20028;-51
2024/03/28 13:56:37;;;;;;;2.33;0.80;;;;;;;;;;5055685;28;20021;-50
2024/03/28 13:59:04;;;;;;;2.45;0.80;;;;;;;;;;5055677;28;20532;-49
2024/03/28 14:01:30;;;;;;;3.88;0.75;;;;;;;;;;5055518;28;20017;-51
2024/03/28 14:03:58;;;;;;;1.83;0.73;;;;;;;;;;5056157;28;20377;-52
2024/03/28 14:06:25;;;;;;;1.90;0.60;;;;;;;;;;5055687;28;20036;-51
2024/03/28 14:08:51;;;;;;;2.70;0.75;;;;;;;;;;5055176;28;20032;-55
2024/03/28 14:11:17;;;;;;;2.95;0.70;;;;;;;;;;5054846;28;20013;-52
2024/03/28 14:13:44;;;;;;;3.10;0.70;;;;;;;;;;5037773;28;20028;-50
2024/03/28 14:16:10;;;;;;;4.78;0.90;;;;;;;;;;5055435;28;20511;-51
2024/03/28 14:18:37;;;;;;;2.35;0.98;;;;;;;;;;5055379;28;20017;-56
2024/03/28 14:21:04;;;;;;;1.65;0.75;;;;;;;;;;5055079;28;20020;-55
2024/03/28 14:23:30;;;;;;;6.55;0.90;;;;;;;;;;5055076;28;20067;-55
2024/03/28 14:26:03;;;;;;;5.80;0.90;;;;;;;;;;5055046;28;20114;-51
2024/03/28 14:28:30;;;;;;;3.50;0.98;;;;;;;;;;5054976;28;20024;-54
2024/03/28 14:30:56;;;;;;;6.20;0.80;;;;;;;;;;5055520;28;20387;-55
2024/03/28 14:33:22;;;;;;;3.22;0.93;;;;;;;;;;5054945;28;20017;-52
2024/03/28 14:35:58;;;;;;;4.82;1.15;;;;;;;;;;5055936;28;20355;-54
2024/03/28 14:38:25;;;;;;;4.38;0.90;;;;;;;;;;5054888;28;20020;-55
2024/03/28 14:40:51;;;;;;;7.50;0.90;;;;;;;;;;5055085;28;20391;-56
2024/03/28 14:43:18;;;;;;;4.32;1.27;;;;;;;;;;5055083;28;20024;-52
2024/03/28 14:45:44;;;;;;;3.47;0.90;;;;;;;;;;5055077;28;20329;-51
2024/03/28 14:48:10;;;;;;;4.10;1.10;;;;;;;;;;5054767;28;20323;-52
2024/03/28 14:50:37;;;;;;;4.35;1.65;;;;;;;;;;5054729;28;20043;-53